sensor_id;sensor_type;location;lat;lon;timestamp;temperature;humidity
13440;DHT22;6792;57.698;11.946;2022-09-03T00:03:25;21.30;39.00
13440;DHT22;6792;57.698;11.946;2022-09-03T00:06:03;21.30;39.60
13440;DHT22;6792;57.698;11.946;2022-09-03T00:08:33;21.30;39.80
13440;DHT22;6792;57.698;11.946;2022-09-03T00:11:06;21.30;39.90
13440;DHT22;6792;57.698;11.946;2022-09-03T00:13:37;21.30;40.00
13440;DHT22;6792;57.698;11.946;2022-09-03T00:16:10;21.30;40.10
13440;DHT22;6792;57.698;11.946;2022-09-03T00:18:42;21.30;40.20
13440;DHT22;6792;57.698;11.946;2022-09-03T00:21:14;21.30;40.20
13440;DHT22;6792;57.698;11.946;2022-09-03T00:23:45;21.30;40.30
13440;DHT22;6792;57.698;11.946;2022-09-03T00:26:21;21.20;40.30
13440;DHT22;6792;57.698;11.946;2022-09-03T00:28:55;21.20;40.10
13440;DHT22;6792;57.698;11.946;2022-09-03T00:31:28;21.20;40.50
13440;DHT22;6792;57.698;11.946;2022-09-03T00:33:59;21.20;40.60
13440;DHT22;6792;57.698;11.946;2022-09-03T00:36:34;21.20;40.80
13440;DHT22;6792;57.698;11.946;2022-09-03T00:39:03;21.10;40.80
13440;DHT22;6792;57.698;11.946;2022-09-03T00:41:36;21.10;40.90
13440;DHT22;6792;57.698;11.946;2022-09-03T00:44:22;21.10;41.00
13440;DHT22;6792;57.698;11.946;2022-09-03T00:46:53;21.10;41.10
13440;DHT22;6792;57.698;11.946;2022-09-03T00:49:30;21.10;41.20
13440;DHT22;6792;57.698;11.946;2022-09-03T00:52:04;21.10;41.20
13440;DHT22;6792;57.698;11.946;2022-09-03T00:54:35;21.10;41.40
13440;DHT22;6792;57.698;11.946;2022-09-03T00:57:17;21.00;41.50
13440;DHT22;6792;57.698;11.946;2022-09-03T00:59:48;21.00;41.30
13440;DHT22;6792;57.698;11.946;2022-09-03T01:02:20;21.00;41.70
13440;DHT22;6792;57.698;11.946;2022-09-03T01:04:55;21.00;41.70
13440;DHT22;6792;57.698;11.946;2022-09-03T01:07:30;21.00;41.90
13440;DHT22;6792;57.698;11.946;2022-09-03T01:10:03;21.00;41.90
13440;DHT22;6792;57.698;11.946;2022-09-03T01:12:36;21.00;42.00
13440;DHT22;6792;57.698;11.946;2022-09-03T01:15:10;20.90;42.00
13440;DHT22;6792;57.698;11.946;2022-09-03T01:17:51;20.90;42.10
13440;DHT22;6792;57.698;11.946;2022-09-03T01:20:31;20.90;42.20
13440;DHT22;6792;57.698;11.946;2022-09-03T01:23:36;20.90;42.20
13440;DHT22;6792;57.698;11.946;2022-09-03T01:26:22;20.90;42.30
13440;DHT22;6792;57.698;11.946;2022-09-03T01:28:57;20.80;42.30
13440;DHT22;6792;57.698;11.946;2022-09-03T01:31:30;20.80;42.40
13440;DHT22;6792;57.698;11.946;2022-09-03T01:34:05;20.80;42.50
13440;DHT22;6792;57.698;11.946;2022-09-03T01:36:39;20.80;42.60
13440;DHT22;6792;57.698;11.946;2022-09-03T01:39:09;20.80;42.60
13440;DHT22;6792;57.698;11.946;2022-09-03T01:41:45;20.80;42.60
13440;DHT22;6792;57.698;11.946;2022-09-03T01:44:52;20.80;42.70
13440;DHT22;6792;57.698;11.946;2022-09-03T01:47:26;20.80;42.70
13440;DHT22;6792;57.698;11.946;2022-09-03T01:50:02;20.80;42.80
13440;DHT22;6792;57.698;11.946;2022-09-03T01:52:36;20.70;42.70
13440;DHT22;6792;57.698;11.946;2022-09-03T01:55:11;20.70;42.80
13440;DHT22;6792;57.698;11.946;2022-09-03T01:57:45;20.70;42.90
13440;DHT22;6792;57.698;11.946;2022-09-03T02:00:16;20.70;43.00
13440;DHT22;6792;57.698;11.946;2022-09-03T02:02:48;20.70;43.10
13440;DHT22;6792;57.698;11.946;2022-09-03T02:05:20;20.60;43.00
13440;DHT22;6792;57.698;11.946;2022-09-03T02:07:55;20.60;43.10
13440;DHT22;6792;57.698;11.946;2022-09-03T02:10:25;20.70;43.20
13440;DHT22;6792;57.698;11.946;2022-09-03T02:12:58;20.60;43.20
13440;DHT22;6792;57.698;11.946;2022-09-03T02:15:28;20.60;43.30
13440;DHT22;6792;57.698;11.946;2022-09-03T02:18:01;20.60;43.30
13440;DHT22;6792;57.698;11.946;2022-09-03T02:20:31;20.60;43.30
13440;DHT22;6792;57.698;11.946;2022-09-03T02:23:00;20.60;43.30
13440;DHT22;6792;57.698;11.946;2022-09-03T02:25:32;20.60;43.30
13440;DHT22;6792;57.698;11.946;2022-09-03T02:28:03;20.60;43.10
13440;DHT22;6792;57.698;11.946;2022-09-03T02:30:32;20.60;43.50
13440;DHT22;6792;57.698;11.946;2022-09-03T02:33:01;20.60;42.90
13440;DHT22;6792;57.698;11.946;2022-09-03T02:35:31;20.60;43.50
13440;DHT22;6792;57.698;11.946;2022-09-03T02:38:10;20.60;43.50
13440;DHT22;6792;57.698;11.946;2022-09-03T02:40:39;20.60;43.50
13440;DHT22;6792;57.698;11.946;2022-09-03T02:43:10;20.50;43.50
13440;DHT22;6792;57.698;11.946;2022-09-03T02:45:44;20.60;43.60
13440;DHT22;6792;57.698;11.946;2022-09-03T02:48:13;20.50;43.60
13440;DHT22;6792;57.698;11.946;2022-09-03T02:50:44;20.50;43.50
13440;DHT22;6792;57.698;11.946;2022-09-03T02:53:13;20.50;43.70
13440;DHT22;6792;57.698;11.946;2022-09-03T02:55:42;20.50;43.70
13440;DHT22;6792;57.698;11.946;2022-09-03T02:58:11;20.50;43.20
13440;DHT22;6792;57.698;11.946;2022-09-03T03:00:40;20.50;43.80
13440;DHT22;6792;57.698;11.946;2022-09-03T03:03:09;20.50;43.80
13440;DHT22;6792;57.698;11.946;2022-09-03T03:05:42;20.50;43.70
13440;DHT22;6792;57.698;11.946;2022-09-03T03:08:12;20.50;43.80
13440;DHT22;6792;57.698;11.946;2022-09-03T03:10:43;20.50;43.80
13440;DHT22;6792;57.698;11.946;2022-09-03T03:13:12;20.50;43.80
13440;DHT22;6792;57.698;11.946;2022-09-03T03:15:41;20.50;43.80
13440;DHT22;6792;57.698;11.946;2022-09-03T03:18:11;20.50;43.80
13440;DHT22;6792;57.698;11.946;2022-09-03T03:20:41;20.50;43.80
13440;DHT22;6792;57.698;11.946;2022-09-03T03:23:10;20.50;43.50
13440;DHT22;6792;57.698;11.946;2022-09-03T03:25:39;20.50;43.80
13440;DHT22;6792;57.698;11.946;2022-09-03T03:28:08;20.50;43.90
13440;DHT22;6792;57.698;11.946;2022-09-03T03:30:38;20.50;44.00
13440;DHT22;6792;57.698;11.946;2022-09-03T03:33:09;20.50;43.50
13440;DHT22;6792;57.698;11.946;2022-09-03T03:35:38;20.50;44.00
13440;DHT22;6792;57.698;11.946;2022-09-03T03:38:08;20.50;44.70
13440;DHT22;6792;57.698;11.946;2022-09-03T03:40:38;20.50;44.10
13440;DHT22;6792;57.698;11.946;2022-09-03T03:43:07;20.40;44.00
13440;DHT22;6792;57.698;11.946;2022-09-03T03:45:35;20.40;44.00
13440;DHT22;6792;57.698;11.946;2022-09-03T03:48:05;20.40;44.10
13440;DHT22;6792;57.698;11.946;2022-09-03T03:50:33;20.40;44.10
13440;DHT22;6792;57.698;11.946;2022-09-03T03:53:02;20.40;44.20
13440;DHT22;6792;57.698;11.946;2022-09-03T03:55:31;20.40;43.70
13440;DHT22;6792;57.698;11.946;2022-09-03T03:58:00;20.30;44.20
13440;DHT22;6792;57.698;11.946;2022-09-03T04:00:29;20.30;44.20
13440;DHT22;6792;57.698;11.946;2022-09-03T04:02:59;20.30;44.20
13440;DHT22;6792;57.698;11.946;2022-09-03T04:05:28;20.30;44.20
13440;DHT22;6792;57.698;11.946;2022-09-03T04:08:00;20.30;44.30
13440;DHT22;6792;57.698;11.946;2022-09-03T04:10:29;20.30;44.30
13440;DHT22;6792;57.698;11.946;2022-09-03T04:12:58;20.30;44.30
13440;DHT22;6792;57.698;11.946;2022-09-03T04:15:28;20.30;44.30
13440;DHT22;6792;57.698;11.946;2022-09-03T04:17:57;20.30;44.30
13440;DHT22;6792;57.698;11.946;2022-09-03T04:20:27;20.30;44.30
13440;DHT22;6792;57.698;11.946;2022-09-03T04:22:58;20.30;44.30
13440;DHT22;6792;57.698;11.946;2022-09-03T04:25:27;20.30;44.30
13440;DHT22;6792;57.698;11.946;2022-09-03T04:27:56;20.30;44.40
13440;DHT22;6792;57.698;11.946;2022-09-03T04:30:25;20.30;44.40
13440;DHT22;6792;57.698;11.946;2022-09-03T04:32:54;20.30;44.40
13440;DHT22;6792;57.698;11.946;2022-09-03T04:35:25;20.20;44.40
13440;DHT22;6792;57.698;11.946;2022-09-03T04:37:57;20.20;44.50
13440;DHT22;6792;57.698;11.946;2022-09-03T04:40:26;20.20;44.50
13440;DHT22;6792;57.698;11.946;2022-09-03T04:42:57;20.20;44.60
13440;DHT22;6792;57.698;11.946;2022-09-03T04:45:27;20.20;44.70
13440;DHT22;6792;57.698;11.946;2022-09-03T04:47:58;20.20;44.60
13440;DHT22;6792;57.698;11.946;2022-09-03T04:50:28;20.20;44.60
13440;DHT22;6792;57.698;11.946;2022-09-03T04:53:01;20.20;44.60
13440;DHT22;6792;57.698;11.946;2022-09-03T04:55:34;20.20;44.60
13440;DHT22;6792;57.698;11.946;2022-09-03T04:58:03;20.20;44.50
13440;DHT22;6792;57.698;11.946;2022-09-03T05:00:34;20.20;44.50
13440;DHT22;6792;57.698;11.946;2022-09-03T05:03:03;20.20;44.50
13440;DHT22;6792;57.698;11.946;2022-09-03T05:05:32;20.20;44.60
13440;DHT22;6792;57.698;11.946;2022-09-03T05:08:02;20.20;44.50
13440;DHT22;6792;57.698;11.946;2022-09-03T05:10:32;20.20;44.60
13440;DHT22;6792;57.698;11.946;2022-09-03T05:13:03;20.20;44.50
13440;DHT22;6792;57.698;11.946;2022-09-03T05:15:32;20.20;44.60
13440;DHT22;6792;57.698;11.946;2022-09-03T05:18:02;20.20;44.60
13440;DHT22;6792;57.698;11.946;2022-09-03T05:20:31;20.20;44.60
13440;DHT22;6792;57.698;11.946;2022-09-03T05:23:02;20.20;44.60
13440;DHT22;6792;57.698;11.946;2022-09-03T05:25:32;20.20;44.60
13440;DHT22;6792;57.698;11.946;2022-09-03T05:28:01;20.20;44.60
13440;DHT22;6792;57.698;11.946;2022-09-03T05:30:30;20.20;44.70
13440;DHT22;6792;57.698;11.946;2022-09-03T05:32:59;20.20;44.70
13440;DHT22;6792;57.698;11.946;2022-09-03T05:35:28;20.20;44.60
13440;DHT22;6792;57.698;11.946;2022-09-03T05:37:57;20.20;44.60
13440;DHT22;6792;57.698;11.946;2022-09-03T05:40:28;20.30;45.20
13440;DHT22;6792;57.698;11.946;2022-09-03T05:42:58;20.30;44.50
13440;DHT22;6792;57.698;11.946;2022-09-03T05:45:27;20.30;44.50
13440;DHT22;6792;57.698;11.946;2022-09-03T05:47:59;20.30;44.50
13440;DHT22;6792;57.698;11.946;2022-09-03T05:50:28;20.30;44.50
13440;DHT22;6792;57.698;11.946;2022-09-03T05:52:59;20.30;44.50
13440;DHT22;6792;57.698;11.946;2022-09-03T05:55:28;20.30;44.50
13440;DHT22;6792;57.698;11.946;2022-09-03T05:57:57;20.30;44.50
13440;DHT22;6792;57.698;11.946;2022-09-03T06:00:26;20.30;44.40
13440;DHT22;6792;57.698;11.946;2022-09-03T06:02:57;20.30;44.40
13440;DHT22;6792;57.698;11.946;2022-09-03T06:05:26;20.30;44.40
13440;DHT22;6792;57.698;11.946;2022-09-03T06:07:55;20.30;44.30
13440;DHT22;6792;57.698;11.946;2022-09-03T06:10:24;20.30;44.30
13440;DHT22;6792;57.698;11.946;2022-09-03T06:12:55;20.40;44.40
13440;DHT22;6792;57.698;11.946;2022-09-03T06:15:25;20.40;44.30
13440;DHT22;6792;57.698;11.946;2022-09-03T06:17:54;20.40;44.30
13440;DHT22;6792;57.698;11.946;2022-09-03T06:20:23;20.40;44.20
13440;DHT22;6792;57.698;11.946;2022-09-03T06:22:54;20.40;44.10
13440;DHT22;6792;57.698;11.946;2022-09-03T06:25:23;20.50;44.20
13440;DHT22;6792;57.698;11.946;2022-09-03T06:27:52;20.50;44.10
13440;DHT22;6792;57.698;11.946;2022-09-03T06:30:21;20.50;44.00
13440;DHT22;6792;57.698;11.946;2022-09-03T06:32:50;20.50;43.90
13440;DHT22;6792;57.698;11.946;2022-09-03T06:38:04;20.50;43.20
13440;DHT22;6792;57.698;11.946;2022-09-03T06:40:33;20.60;43.70
13440;DHT22;6792;57.698;11.946;2022-09-03T06:43:02;20.60;43.70
13440;DHT22;6792;57.698;11.946;2022-09-03T06:45:31;20.70;43.60
13440;DHT22;6792;57.698;11.946;2022-09-03T06:48:00;20.70;43.50
13440;DHT22;6792;57.698;11.946;2022-09-03T06:50:29;20.70;43.40
13440;DHT22;6792;57.698;11.946;2022-09-03T06:52:57;20.80;43.40
13440;DHT22;6792;57.698;11.946;2022-09-03T06:55:26;20.80;43.30
13440;DHT22;6792;57.698;11.946;2022-09-03T06:57:56;20.80;43.20
13440;DHT22;6792;57.698;11.946;2022-09-03T07:00:25;20.80;43.10
13440;DHT22;6792;57.698;11.946;2022-09-03T07:02:56;20.90;43.00
13440;DHT22;6792;57.698;11.946;2022-09-03T07:05:26;20.90;42.90
13440;DHT22;6792;57.698;11.946;2022-09-03T07:07:55;21.00;42.80
13440;DHT22;6792;57.698;11.946;2022-09-03T07:10:24;21.00;42.70
13440;DHT22;6792;57.698;11.946;2022-09-03T07:12:54;21.00;42.50
13440;DHT22;6792;57.698;11.946;2022-09-03T07:15:23;21.00;42.50
13440;DHT22;6792;57.698;11.946;2022-09-03T07:17:52;21.10;42.40
13440;DHT22;6792;57.698;11.946;2022-09-03T07:20:22;21.10;42.30
13440;DHT22;6792;57.698;11.946;2022-09-03T07:22:54;21.20;42.10
13440;DHT22;6792;57.698;11.946;2022-09-03T07:25:24;21.20;42.00
13440;DHT22;6792;57.698;11.946;2022-09-03T07:27:53;21.20;41.90
13440;DHT22;6792;57.698;11.946;2022-09-03T07:30:22;21.30;41.80
13440;DHT22;6792;57.698;11.946;2022-09-03T07:32:53;21.30;41.70
13440;DHT22;6792;57.698;11.946;2022-09-03T07:35:21;21.40;41.60
13440;DHT22;6792;57.698;11.946;2022-09-03T07:37:52;21.40;41.40
13440;DHT22;6792;57.698;11.946;2022-09-03T07:40:21;21.40;41.30
13440;DHT22;6792;57.698;11.946;2022-09-03T07:42:56;21.50;41.20
13440;DHT22;6792;57.698;11.946;2022-09-03T07:45:28;21.50;40.60
13440;DHT22;6792;57.698;11.946;2022-09-03T07:47:57;21.60;41.10
13440;DHT22;6792;57.698;11.946;2022-09-03T07:50:26;21.60;40.90
13440;DHT22;6792;57.698;11.946;2022-09-03T07:52:57;21.70;40.90
13440;DHT22;6792;57.698;11.946;2022-09-03T07:55:26;21.80;40.90
13440;DHT22;6792;57.698;11.946;2022-09-03T07:57:56;21.90;41.00
13440;DHT22;6792;57.698;11.946;2022-09-03T08:00:25;21.90;41.00
13440;DHT22;6792;57.698;11.946;2022-09-03T08:02:54;22.00;41.00
13440;DHT22;6792;57.698;11.946;2022-09-03T08:05:25;22.20;40.90
13440;DHT22;6792;57.698;11.946;2022-09-03T08:07:54;22.20;40.80
13440;DHT22;6792;57.698;11.946;2022-09-03T08:10:23;22.30;40.20
13440;DHT22;6792;57.698;11.946;2022-09-03T08:12:53;22.40;40.60
13440;DHT22;6792;57.698;11.946;2022-09-03T08:15:22;22.40;40.40
13440;DHT22;6792;57.698;11.946;2022-09-03T08:17:51;22.50;40.20
13440;DHT22;6792;57.698;11.946;2022-09-03T08:20:20;22.50;40.00
13440;DHT22;6792;57.698;11.946;2022-09-03T08:22:49;22.50;39.90
13440;DHT22;6792;57.698;11.946;2022-09-03T08:25:18;22.60;39.90
13440;DHT22;6792;57.698;11.946;2022-09-03T08:27:47;22.60;39.70
13440;DHT22;6792;57.698;11.946;2022-09-03T08:30:18;22.60;39.60
13440;DHT22;6792;57.698;11.946;2022-09-03T08:32:48;22.70;39.50
13440;DHT22;6792;57.698;11.946;2022-09-03T08:35:17;22.70;39.40
13440;DHT22;6792;57.698;11.946;2022-09-03T08:37:46;22.80;39.30
13440;DHT22;6792;57.698;11.946;2022-09-03T08:40:16;22.80;39.20
13440;DHT22;6792;57.698;11.946;2022-09-03T08:42:55;22.80;39.20
13440;DHT22;6792;57.698;11.946;2022-09-03T08:45:24;22.90;39.10
13440;DHT22;6792;57.698;11.946;2022-09-03T08:47:58;22.90;39.00
13440;DHT22;6792;57.698;11.946;2022-09-03T08:50:30;23.00;39.00
13440;DHT22;6792;57.698;11.946;2022-09-03T08:53:02;23.00;39.00
13440;DHT22;6792;57.698;11.946;2022-09-03T08:55:34;23.00;38.40
13440;DHT22;6792;57.698;11.946;2022-09-03T08:58:07;23.00;38.90
13440;DHT22;6792;57.698;11.946;2022-09-03T09:00:45;23.00;38.90
13440;DHT22;6792;57.698;11.946;2022-09-03T09:03:31;23.10;39.00
13440;DHT22;6792;57.698;11.946;2022-09-03T09:06:05;23.10;38.80
13440;DHT22;6792;57.698;11.946;2022-09-03T09:08:38;23.20;39.50
13440;DHT22;6792;57.698;11.946;2022-09-03T09:11:13;23.20;38.90
13440;DHT22;6792;57.698;11.946;2022-09-03T09:13:45;23.20;38.80
13440;DHT22;6792;57.698;11.946;2022-09-03T09:16:18;23.20;38.80
13440;DHT22;6792;57.698;11.946;2022-09-03T09:19:00;23.30;38.80
13440;DHT22;6792;57.698;11.946;2022-09-03T09:21:26;23.30;38.80
13440;DHT22;6792;57.698;11.946;2022-09-03T09:23:59;23.30;38.70
13440;DHT22;6792;57.698;11.946;2022-09-03T09:26:29;23.40;38.70
13440;DHT22;6792;57.698;11.946;2022-09-03T09:29:00;23.50;38.70
13440;DHT22;6792;57.698;11.946;2022-09-03T09:31:30;23.50;38.00
13440;DHT22;6792;57.698;11.946;2022-09-03T09:34:03;23.50;38.60
13440;DHT22;6792;57.698;11.946;2022-09-03T09:36:36;23.50;38.60
13440;DHT22;6792;57.698;11.946;2022-09-03T09:39:09;23.60;38.60
13440;DHT22;6792;57.698;11.946;2022-09-03T09:41:38;23.60;38.60
13440;DHT22;6792;57.698;11.946;2022-09-03T09:44:07;23.60;38.50
13440;DHT22;6792;57.698;11.946;2022-09-03T09:46:37;23.60;38.50
13440;DHT22;6792;57.698;11.946;2022-09-03T09:49:26;23.70;38.50
13440;DHT22;6792;57.698;11.946;2022-09-03T09:51:48;23.70;38.50
13440;DHT22;6792;57.698;11.946;2022-09-03T09:54:18;23.70;38.50
13440;DHT22;6792;57.698;11.946;2022-09-03T09:56:58;23.70;38.40
13440;DHT22;6792;57.698;11.946;2022-09-03T09:59:27;23.80;38.40
13440;DHT22;6792;57.698;11.946;2022-09-03T10:02:07;23.80;38.40
13440;DHT22;6792;57.698;11.946;2022-09-03T10:04:37;23.80;38.30
13440;DHT22;6792;57.698;11.946;2022-09-03T10:07:19;23.90;38.30
13440;DHT22;6792;57.698;11.946;2022-09-03T10:10:03;23.90;38.30
13440;DHT22;6792;57.698;11.946;2022-09-03T10:12:36;23.80;37.70
13440;DHT22;6792;57.698;11.946;2022-09-03T10:15:22;23.80;38.30
13440;DHT22;6792;57.698;11.946;2022-09-03T10:17:50;23.90;38.30
13440;DHT22;6792;57.698;11.946;2022-09-03T10:20:23;23.90;38.20
13440;DHT22;6792;57.698;11.946;2022-09-03T10:22:58;24.00;38.20
13440;DHT22;6792;57.698;11.946;2022-09-03T10:25:34;24.00;38.10
13440;DHT22;6792;57.698;11.946;2022-09-03T10:28:06;24.00;38.00
13440;DHT22;6792;57.698;11.946;2022-09-03T10:30:44;24.10;38.00
13440;DHT22;6792;57.698;11.946;2022-09-03T10:33:17;24.10;37.50
13440;DHT22;6792;57.698;11.946;2022-09-03T10:35:51;24.10;38.00
13440;DHT22;6792;57.698;11.946;2022-09-03T10:38:24;24.20;37.90
13440;DHT22;6792;57.698;11.946;2022-09-03T10:40:59;24.20;37.90
13440;DHT22;6792;57.698;11.946;2022-09-03T10:43:39;24.20;38.00
13440;DHT22;6792;57.698;11.946;2022-09-03T10:46:12;24.20;37.90
13440;DHT22;6792;57.698;11.946;2022-09-03T10:48:48;24.30;38.00
13440;DHT22;6792;57.698;11.946;2022-09-03T10:51:21;24.30;37.90
13440;DHT22;6792;57.698;11.946;2022-09-03T10:54:08;24.40;37.80
13440;DHT22;6792;57.698;11.946;2022-09-03T10:56:39;24.40;37.70
13440;DHT22;6792;57.698;11.946;2022-09-03T10:59:26;24.40;37.60
13440;DHT22;6792;57.698;11.946;2022-09-03T11:01:58;24.50;37.60
13440;DHT22;6792;57.698;11.946;2022-09-03T11:04:32;24.50;37.50
13440;DHT22;6792;57.698;11.946;2022-09-03T11:07:03;24.60;37.50
13440;DHT22;6792;57.698;11.946;2022-09-03T11:09:36;24.70;37.50
13440;DHT22;6792;57.698;11.946;2022-09-03T11:12:10;24.70;37.40
13440;DHT22;6792;57.698;11.946;2022-09-03T11:14:43;24.80;37.30
13440;DHT22;6792;57.698;11.946;2022-09-03T11:17:15;24.90;37.30
13440;DHT22;6792;57.698;11.946;2022-09-03T11:19:49;24.90;36.70
13440;DHT22;6792;57.698;11.946;2022-09-03T11:22:18;25.00;37.20
13440;DHT22;6792;57.698;11.946;2022-09-03T11:24:53;25.00;37.10
13440;DHT22;6792;57.698;11.946;2022-09-03T11:27:31;25.10;37.00
13440;DHT22;6792;57.698;11.946;2022-09-03T11:30:04;25.20;37.00
13440;DHT22;6792;57.698;11.946;2022-09-03T11:32:44;25.20;36.90
13440;DHT22;6792;57.698;11.946;2022-09-03T11:35:22;25.30;36.70
13440;DHT22;6792;57.698;11.946;2022-09-03T11:37:52;25.40;36.70
13440;DHT22;6792;57.698;11.946;2022-09-03T11:40:27;25.50;36.50
13440;DHT22;6792;57.698;11.946;2022-09-03T11:43:06;25.50;36.40
13440;DHT22;6792;57.698;11.946;2022-09-03T11:45:38;25.50;36.30
13440;DHT22;6792;57.698;11.946;2022-09-03T11:48:32;25.50;36.20
13440;DHT22;6792;57.698;11.946;2022-09-03T11:51:00;25.60;35.60
13440;DHT22;6792;57.698;11.946;2022-09-03T11:53:34;25.70;36.40
13440;DHT22;6792;57.698;11.946;2022-09-03T11:56:16;25.70;36.20
13440;DHT22;6792;57.698;11.946;2022-09-03T11:58:46;25.80;36.60
13440;DHT22;6792;57.698;11.946;2022-09-03T12:01:16;25.90;35.80
13440;DHT22;6792;57.698;11.946;2022-09-03T12:03:47;26.00;35.60
13440;DHT22;6792;57.698;11.946;2022-09-03T12:06:30;26.10;35.50
13440;DHT22;6792;57.698;11.946;2022-09-03T12:11:59;26.20;35.30
13440;DHT22;6792;57.698;11.946;2022-09-03T12:14:32;26.30;35.30
13440;DHT22;6792;57.698;11.946;2022-09-03T12:17:11;26.50;35.20
13440;DHT22;6792;57.698;11.946;2022-09-03T12:19:49;26.60;34.90
13440;DHT22;6792;57.698;11.946;2022-09-03T12:22:15;26.70;34.70
13440;DHT22;6792;57.698;11.946;2022-09-03T12:24:44;26.90;34.60
13440;DHT22;6792;57.698;11.946;2022-09-03T12:27:21;27.10;34.50
13440;DHT22;6792;57.698;11.946;2022-09-03T12:29:52;27.20;34.20
13440;DHT22;6792;57.698;11.946;2022-09-03T12:32:24;27.30;34.00
13440;DHT22;6792;57.698;11.946;2022-09-03T12:34:54;27.30;33.80
13440;DHT22;6792;57.698;11.946;2022-09-03T12:37:25;27.30;34.00
13440;DHT22;6792;57.698;11.946;2022-09-03T12:39:55;27.30;34.20
13440;DHT22;6792;57.698;11.946;2022-09-03T12:42:27;27.50;34.40
13440;DHT22;6792;57.698;11.946;2022-09-03T12:45:04;27.60;34.40
13440;DHT22;6792;57.698;11.946;2022-09-03T12:47:37;27.60;34.30
13440;DHT22;6792;57.698;11.946;2022-09-03T12:50:08;27.60;34.10
13440;DHT22;6792;57.698;11.946;2022-09-03T12:52:40;27.60;34.00
13440;DHT22;6792;57.698;11.946;2022-09-03T12:55:16;27.60;34.00
13440;DHT22;6792;57.698;11.946;2022-09-03T12:57:46;27.60;34.00
13440;DHT22;6792;57.698;11.946;2022-09-03T13:00:17;27.60;34.00
13440;DHT22;6792;57.698;11.946;2022-09-03T13:02:49;27.50;34.00
13440;DHT22;6792;57.698;11.946;2022-09-03T13:05:21;27.70;34.30
13440;DHT22;6792;57.698;11.946;2022-09-03T13:07:53;28.00;34.30
13440;DHT22;6792;57.698;11.946;2022-09-03T13:10:26;28.60;34.10
13440;DHT22;6792;57.698;11.946;2022-09-03T13:13:00;29.00;33.50
13440;DHT22;6792;57.698;11.946;2022-09-03T13:15:29;29.40;33.30
13440;DHT22;6792;57.698;11.946;2022-09-03T13:20:49;29.50;32.60
13440;DHT22;6792;57.698;11.946;2022-09-03T13:26:33;30.10;33.60
13440;DHT22;6792;57.698;11.946;2022-09-03T13:29:18;31.70;33.30
13440;DHT22;6792;57.698;11.946;2022-09-03T13:31:50;32.90;32.60
13440;DHT22;6792;57.698;11.946;2022-09-03T13:34:23;34.10;31.10
13440;DHT22;6792;57.698;11.946;2022-09-03T13:36:55;34.70;30.10
13440;DHT22;6792;57.698;11.946;2022-09-03T13:39:29;35.70;30.00
13440;DHT22;6792;57.698;11.946;2022-09-03T13:42:02;37.00;29.40
13440;DHT22;6792;57.698;11.946;2022-09-03T13:44:41;38.20;28.50
13440;DHT22;6792;57.698;11.946;2022-09-03T13:47:11;39.30;27.70
13440;DHT22;6792;57.698;11.946;2022-09-03T13:49:46;40.00;26.80
13440;DHT22;6792;57.698;11.946;2022-09-03T13:52:36;40.70;26.40
13440;DHT22;6792;57.698;11.946;2022-09-03T13:55:11;41.10;25.80
13440;DHT22;6792;57.698;11.946;2022-09-03T13:57:45;41.60;25.40
13440;DHT22;6792;57.698;11.946;2022-09-03T14:00:24;41.90;24.70
13440;DHT22;6792;57.698;11.946;2022-09-03T14:02:57;41.50;23.80
13440;DHT22;6792;57.698;11.946;2022-09-03T14:05:35;40.60;23.70
13440;DHT22;6792;57.698;11.946;2022-09-03T14:08:08;39.50;23.60
13440;DHT22;6792;57.698;11.946;2022-09-03T14:10:54;38.40;23.80
13440;DHT22;6792;57.698;11.946;2022-09-03T14:13:37;37.50;24.10
13440;DHT22;6792;57.698;11.946;2022-09-03T14:16:04;36.60;24.60
13440;DHT22;6792;57.698;11.946;2022-09-03T14:18:40;35.90;24.90
13440;DHT22;6792;57.698;11.946;2022-09-03T14:21:13;35.30;25.40
13440;DHT22;6792;57.698;11.946;2022-09-03T14:23:46;34.80;25.70
13440;DHT22;6792;57.698;11.946;2022-09-03T14:26:21;34.10;25.90
13440;DHT22;6792;57.698;11.946;2022-09-03T14:28:57;33.70;26.30
13440;DHT22;6792;57.698;11.946;2022-09-03T14:31:34;33.20;26.40
13440;DHT22;6792;57.698;11.946;2022-09-03T14:34:06;32.70;26.70
13440;DHT22;6792;57.698;11.946;2022-09-03T14:36:38;32.40;27.10
13440;DHT22;6792;57.698;11.946;2022-09-03T14:39:29;32.00;27.30
13440;DHT22;6792;57.698;11.946;2022-09-03T14:42:22;31.60;27.70
13440;DHT22;6792;57.698;11.946;2022-09-03T14:45:07;31.10;27.60
13440;DHT22;6792;57.698;11.946;2022-09-03T14:47:47;30.90;28.30
13440;DHT22;6792;57.698;11.946;2022-09-03T14:50:27;30.60;28.50
13440;DHT22;6792;57.698;11.946;2022-09-03T14:53:07;30.40;28.70
13440;DHT22;6792;57.698;11.946;2022-09-03T14:55:47;30.20;29.00
13440;DHT22;6792;57.698;11.946;2022-09-03T14:58:34;30.00;28.80
13440;DHT22;6792;57.698;11.946;2022-09-03T15:01:09;29.80;29.40
13440;DHT22;6792;57.698;11.946;2022-09-03T15:07:12;29.50;29.80
13440;DHT22;6792;57.698;11.946;2022-09-03T15:09:44;29.10;29.70
13440;DHT22;6792;57.698;11.946;2022-09-03T15:12:20;29.00;29.90
13440;DHT22;6792;57.698;11.946;2022-09-03T15:14:52;28.90;30.40
13440;DHT22;6792;57.698;11.946;2022-09-03T15:17:54;28.80;31.20
13440;DHT22;6792;57.698;11.946;2022-09-03T15:20:40;28.70;30.30
13440;DHT22;6792;57.698;11.946;2022-09-03T15:23:37;28.50;30.90
13440;DHT22;6792;57.698;11.946;2022-09-03T15:29:17;28.30;31.30
13440;DHT22;6792;57.698;11.946;2022-09-03T15:31:51;28.20;32.00
13440;DHT22;6792;57.698;11.946;2022-09-03T15:34:39;28.10;31.20
13440;DHT22;6792;57.698;11.946;2022-09-03T15:37:12;28.10;31.60
13440;DHT22;6792;57.698;11.946;2022-09-03T15:39:43;27.90;31.20
13440;DHT22;6792;57.698;11.946;2022-09-03T15:42:17;27.90;32.00
13440;DHT22;6792;57.698;11.946;2022-09-03T15:44:50;27.80;32.00
13440;DHT22;6792;57.698;11.946;2022-09-03T15:47:33;27.80;31.70
13440;DHT22;6792;57.698;11.946;2022-09-03T15:50:05;27.70;32.20
13440;DHT22;6792;57.698;11.946;2022-09-03T15:52:41;27.70;32.30
13440;DHT22;6792;57.698;11.946;2022-09-03T15:55:12;27.60;31.80
13440;DHT22;6792;57.698;11.946;2022-09-03T15:57:45;27.60;32.00
13440;DHT22;6792;57.698;11.946;2022-09-03T16:00:18;27.50;32.00
13440;DHT22;6792;57.698;11.946;2022-09-03T16:02:52;27.50;32.70
13440;DHT22;6792;57.698;11.946;2022-09-03T16:05:24;27.50;32.80
13440;DHT22;6792;57.698;11.946;2022-09-03T16:08:07;27.40;32.40
13440;DHT22;6792;57.698;11.946;2022-09-03T16:10:49;27.20;33.10
13440;DHT22;6792;57.698;11.946;2022-09-03T16:16:21;27.00;33.50
13440;DHT22;6792;57.698;11.946;2022-09-03T16:19:00;27.00;33.70
13440;DHT22;6792;57.698;11.946;2022-09-03T16:21:35;27.10;33.90
13440;DHT22;6792;57.698;11.946;2022-09-03T16:24:11;27.00;33.90
13440;DHT22;6792;57.698;11.946;2022-09-03T16:26:41;27.00;34.00
13440;DHT22;6792;57.698;11.946;2022-09-03T16:29:13;27.00;34.20